sensor_id;sensor_type;location;lat;lon;timestamp;pressure;altitude;pressure_sealevel;temperature;humidity
6567;BME280;3317;43.994;22.878;2023-01-26T00:02:20;102093.38;;;1.90;76.67
6567;BME280;3317;43.994;22.878;2023-01-26T00:04:48;102086.25;;;1.90;76.76
6567;BME280;3317;43.994;22.878;2023-01-26T00:07:15;102086.28;;;1.89;76.66
6567;BME280;3317;43.994;22.878;2023-01-26T00:09:42;102083.75;;;1.86;76.82
6567;BME280;3317;43.994;22.878;2023-01-26T00:12:09;102074.94;;;1.83;77.16
6567;BME280;3317;43.994;22.878;2023-01-26T00:14:36;102067.41;;;1.71;77.20
6567;BME280;3317;43.994;22.878;2023-01-26T00:17:16;102071.41;;;1.61;77.26
6567;BME280;3317;43.994;22.878;2023-01-26T00:19:53;102081.28;;;1.59;77.26
6567;BME280;3317;43.994;22.878;2023-01-26T00:22:21;102062.16;;;1.47;77.08
6567;BME280;3317;43.994;22.878;2023-01-26T00:24:48;102078.19;;;1.47;77.01
6567;BME280;3317;43.994;22.878;2023-01-26T00:27:15;102080.16;;;1.42;77.32
6567;BME280;3317;43.994;22.878;2023-01-26T00:29:42;102078.53;;;1.38;78.12
6567;BME280;3317;43.994;22.878;2023-01-26T00:32:09;102070.03;;;1.28;78.08
6567;BME280;3317;43.994;22.878;2023-01-26T00:34:35;102086.84;;;1.30;78.49
6567;BME280;3317;43.994;22.878;2023-01-26T00:37:04;102088.59;;;1.31;78.48
6567;BME280;3317;43.994;22.878;2023-01-26T00:39:31;102081.69;;;1.25;78.76
6567;BME280;3317;43.994;22.878;2023-01-26T00:41:58;102088.72;;;1.28;78.91
6567;BME280;3317;43.994;22.878;2023-01-26T00:44:36;102075.31;;;1.30;78.28
6567;BME280;3317;43.994;22.878;2023-01-26T00:47:04;102075.66;;;1.20;78.50
6567;BME280;3317;43.994;22.878;2023-01-26T00:49:31;101989.16;;;0.78;78.53
6567;BME280;3317;43.994;22.878;2023-01-26T00:51:58;102061.38;;;1.21;79.11
6567;BME280;3317;43.994;22.878;2023-01-26T00:54:27;102061.59;;;1.15;78.97
6567;BME280;3317;43.994;22.878;2023-01-26T00:56:54;102060.31;;;1.25;79.00
6567;BME280;3317;43.994;22.878;2023-01-26T00:59:21;102064.97;;;1.20;79.13
6567;BME280;3317;43.994;22.878;2023-01-26T01:01:48;102060.28;;;1.27;78.98
6567;BME280;3317;43.994;22.878;2023-01-26T01:04:15;102060.16;;;1.30;78.77
6567;BME280;3317;43.994;22.878;2023-01-26T01:06:42;102054.13;;;1.25;79.29
6567;BME280;3317;43.994;22.878;2023-01-26T01:09:09;102056.63;;;1.30;79.18
6567;BME280;3317;43.994;22.878;2023-01-26T01:11:37;102060.91;;;1.34;79.06
6567;BME280;3317;43.994;22.878;2023-01-26T01:14:04;102052.09;;;1.32;79.05
6567;BME280;3317;43.994;22.878;2023-01-26T01:16:31;102052.31;;;1.25;79.44
6567;BME280;3317;43.994;22.878;2023-01-26T01:18:58;102059.28;;;1.30;79.39
6567;BME280;3317;43.994;22.878;2023-01-26T01:21:25;102080.56;;;1.31;79.25
6567;BME280;3317;43.994;22.878;2023-01-26T01:23:52;102044.13;;;1.30;79.45
6567;BME280;3317;43.994;22.878;2023-01-26T01:26:19;102037.91;;;1.30;79.40
6567;BME280;3317;43.994;22.878;2023-01-26T01:28:47;102038.81;;;1.29;79.26
6567;BME280;3317;43.994;22.878;2023-01-26T01:31:15;102040.00;;;1.21;79.70
6567;BME280;3317;43.994;22.878;2023-01-26T01:33:42;102029.25;;;1.23;79.64
6567;BME280;3317;43.994;22.878;2023-01-26T01:36:11;102029.16;;;1.26;79.63
6567;BME280;3317;43.994;22.878;2023-01-26T01:38:39;102000.88;;;1.20;79.42
6567;BME280;3317;43.994;22.878;2023-01-26T01:41:06;102013.78;;;1.31;79.79
6567;BME280;3317;43.994;22.878;2023-01-26T01:43:33;102024.47;;;1.31;79.42
6567;BME280;3317;43.994;22.878;2023-01-26T01:46:06;102007.69;;;1.27;79.92
6567;BME280;3317;43.994;22.878;2023-01-26T01:48:38;102002.50;;;1.24;80.03
6567;BME280;3317;43.994;22.878;2023-01-26T01:51:13;102013.13;;;1.26;79.92
6567;BME280;3317;43.994;22.878;2023-01-26T01:53:45;101995.19;;;1.30;79.88
6567;BME280;3317;43.994;22.878;2023-01-26T01:56:16;102010.38;;;1.27;80.03
6567;BME280;3317;43.994;22.878;2023-01-26T01:58:47;102002.97;;;1.34;79.78
6567;BME280;3317;43.994;22.878;2023-01-26T02:01:17;102003.19;;;1.30;79.80
6567;BME280;3317;43.994;22.878;2023-01-26T02:03:44;102002.25;;;1.31;79.82
6567;BME280;3317;43.994;22.878;2023-01-26T02:06:15;102002.78;;;1.39;79.48
6567;BME280;3317;43.994;22.878;2023-01-26T02:08:46;102003.81;;;1.36;79.79
6567;BME280;3317;43.994;22.878;2023-01-26T02:11:16;102002.34;;;1.27;80.03
6567;BME280;3317;43.994;22.878;2023-01-26T02:13:45;101992.63;;;1.26;79.83
6567;BME280;3317;43.994;22.878;2023-01-26T02:16:13;101986.94;;;1.34;79.67
6567;BME280;3317;43.994;22.878;2023-01-26T02:18:42;101985.41;;;1.29;79.57
6567;BME280;3317;43.994;22.878;2023-01-26T02:21:11;101990.50;;;1.35;79.65
6567;BME280;3317;43.994;22.878;2023-01-26T02:24:03;101994.34;;;1.27;80.11
6567;BME280;3317;43.994;22.878;2023-01-26T02:26:35;101953.94;;;1.15;79.76
6567;BME280;3317;43.994;22.878;2023-01-26T02:29:05;101966.47;;;1.35;80.00
6567;BME280;3317;43.994;22.878;2023-01-26T02:31:33;101965.72;;;1.31;79.96
6567;BME280;3317;43.994;22.878;2023-01-26T02:34:00;101950.91;;;1.24;80.10
6567;BME280;3317;43.994;22.878;2023-01-26T02:36:29;101960.38;;;1.31;79.85
6567;BME280;3317;43.994;22.878;2023-01-26T02:41:56;101958.41;;;1.36;79.96
6567;BME280;3317;43.994;22.878;2023-01-26T02:44:41;101958.63;;;1.30;80.01
6567;BME280;3317;43.994;22.878;2023-01-26T02:47:10;101951.56;;;1.29;80.07
6567;BME280;3317;43.994;22.878;2023-01-26T02:49:37;101935.84;;;1.21;80.74
6567;BME280;3317;43.994;22.878;2023-01-26T02:52:15;101941.19;;;1.21;80.90
6567;BME280;3317;43.994;22.878;2023-01-26T02:54:43;101961.56;;;1.24;80.45
6567;BME280;3317;43.994;22.878;2023-01-26T02:57:28;101943.38;;;1.34;80.38
6567;BME280;3317;43.994;22.878;2023-01-26T02:59:56;101946.22;;;1.29;80.80
6567;BME280;3317;43.994;22.878;2023-01-26T03:02:23;101946.69;;;1.39;80.55
6567;BME280;3317;43.994;22.878;2023-01-26T03:04:50;101932.72;;;1.32;80.68
6567;BME280;3317;43.994;22.878;2023-01-26T03:07:17;101937.75;;;1.40;80.50
6567;BME280;3317;43.994;22.878;2023-01-26T03:09:44;101935.69;;;1.47;80.07
6567;BME280;3317;43.994;22.878;2023-01-26T03:12:11;101930.53;;;1.42;80.29
6567;BME280;3317;43.994;22.878;2023-01-26T03:14:40;101925.94;;;1.46;79.88
6567;BME280;3317;43.994;22.878;2023-01-26T03:17:07;101923.44;;;1.41;80.45
6567;BME280;3317;43.994;22.878;2023-01-26T03:19:34;101922.47;;;1.44;79.89
6567;BME280;3317;43.994;22.878;2023-01-26T03:22:18;101908.25;;;1.43;80.12
6567;BME280;3317;43.994;22.878;2023-01-26T03:25:03;101919.31;;;1.34;80.44
6567;BME280;3317;43.994;22.878;2023-01-26T03:27:48;101915.72;;;1.35;80.68
6567;BME280;3317;43.994;22.878;2023-01-26T03:30:18;101853.78;;;1.04;80.55
6567;BME280;3317;43.994;22.878;2023-01-26T03:32:45;101909.44;;;1.36;80.61
6567;BME280;3317;43.994;22.878;2023-01-26T03:35:12;101907.56;;;1.38;80.68
6567;BME280;3317;43.994;22.878;2023-01-26T03:37:41;101904.22;;;1.33;80.77
6567;BME280;3317;43.994;22.878;2023-01-26T03:40:11;101888.19;;;1.33;80.75
6567;BME280;3317;43.994;22.878;2023-01-26T03:42:56;101887.59;;;1.26;80.85
6567;BME280;3317;43.994;22.878;2023-01-26T03:45:41;101913.78;;;1.16;81.20
6567;BME280;3317;43.994;22.878;2023-01-26T03:48:25;101896.03;;;1.15;81.55
6567;BME280;3317;43.994;22.878;2023-01-26T03:51:10;101892.44;;;1.16;81.79
6567;BME280;3317;43.994;22.878;2023-01-26T03:53:54;101894.31;;;1.14;82.05
6567;BME280;3317;43.994;22.878;2023-01-26T03:56:38;101883.38;;;1.20;82.01
6567;BME280;3317;43.994;22.878;2023-01-26T03:59:06;101879.31;;;1.11;81.81
6567;BME280;3317;43.994;22.878;2023-01-26T04:01:36;101881.50;;;1.22;81.39
6567;BME280;3317;43.994;22.878;2023-01-26T04:04:04;101878.09;;;1.19;81.30
6567;BME280;3317;43.994;22.878;2023-01-26T04:06:49;101866.75;;;1.14;81.34
6567;BME280;3317;43.994;22.878;2023-01-26T04:09:34;101877.25;;;1.18;81.51
6567;BME280;3317;43.994;22.878;2023-01-26T04:12:04;101868.19;;;1.21;81.22
6567;BME280;3317;43.994;22.878;2023-01-26T04:14:32;101860.38;;;1.16;81.39
6567;BME280;3317;43.994;22.878;2023-01-26T04:17:17;101847.44;;;1.07;81.27
6567;BME280;3317;43.994;22.878;2023-01-26T04:20:02;101858.28;;;1.24;81.06
6567;BME280;3317;43.994;22.878;2023-01-26T04:22:47;101860.13;;;1.22;81.11
6567;BME280;3317;43.994;22.878;2023-01-26T04:25:15;101861.00;;;1.23;81.28
6567;BME280;3317;43.994;22.878;2023-01-26T04:27:43;101835.09;;;1.04;81.38
6567;BME280;3317;43.994;22.878;2023-01-26T04:30:12;101856.91;;;1.14;81.53
6567;BME280;3317;43.994;22.878;2023-01-26T04:32:41;101855.03;;;1.16;82.00
6567;BME280;3317;43.994;22.878;2023-01-26T04:35:09;101847.78;;;1.20;82.05
6567;BME280;3317;43.994;22.878;2023-01-26T04:37:36;101845.25;;;1.17;82.38
6567;BME280;3317;43.994;22.878;2023-01-26T04:40:04;101838.56;;;1.06;82.67
6567;BME280;3317;43.994;22.878;2023-01-26T04:42:32;101847.44;;;1.07;83.12
6567;BME280;3317;43.994;22.878;2023-01-26T04:44:59;101848.44;;;1.04;83.43
6567;BME280;3317;43.994;22.878;2023-01-26T04:47:25;101793.06;;;0.66;83.46
6567;BME280;3317;43.994;22.878;2023-01-26T04:49:54;101822.72;;;1.02;83.66
6567;BME280;3317;43.994;22.878;2023-01-26T04:52:21;101833.81;;;0.92;83.56
6567;BME280;3317;43.994;22.878;2023-01-26T04:54:47;101819.44;;;0.95;83.88
6567;BME280;3317;43.994;22.878;2023-01-26T04:57:14;101815.13;;;0.92;83.40
6567;BME280;3317;43.994;22.878;2023-01-26T04:59:44;101813.63;;;0.85;83.84
6567;BME280;3317;43.994;22.878;2023-01-26T05:02:11;101809.03;;;0.89;84.03
6567;BME280;3317;43.994;22.878;2023-01-26T05:04:38;101816.72;;;0.96;83.67
6567;BME280;3317;43.994;22.878;2023-01-26T05:07:06;101799.72;;;0.99;83.52
6567;BME280;3317;43.994;22.878;2023-01-26T05:09:33;101813.13;;;0.97;83.37
6567;BME280;3317;43.994;22.878;2023-01-26T05:12:00;101814.84;;;0.98;83.96
6567;BME280;3317;43.994;22.878;2023-01-26T05:14:41;101816.59;;;1.00;83.82
6567;BME280;3317;43.994;22.878;2023-01-26T05:17:07;101822.88;;;0.98;83.57
6567;BME280;3317;43.994;22.878;2023-01-26T05:19:34;101818.47;;;0.97;83.25
6567;BME280;3317;43.994;22.878;2023-01-26T05:22:01;101824.59;;;1.00;83.26
6567;BME280;3317;43.994;22.878;2023-01-26T05:24:29;101805.44;;;0.90;83.70
6567;BME280;3317;43.994;22.878;2023-01-26T05:26:56;101826.34;;;1.01;84.00
6567;BME280;3317;43.994;22.878;2023-01-26T05:29:37;101828.38;;;0.94;84.29
6567;BME280;3317;43.994;22.878;2023-01-26T05:32:05;101815.75;;;0.99;84.34
6567;BME280;3317;43.994;22.878;2023-01-26T05:34:32;101823.81;;;0.97;84.36
6567;BME280;3317;43.994;22.878;2023-01-26T05:36:58;101818.41;;;0.99;84.01
6567;BME280;3317;43.994;22.878;2023-01-26T05:39:26;101826.28;;;1.02;84.19
6567;BME280;3317;43.994;22.878;2023-01-26T05:41:54;101825.66;;;0.95;83.88
6567;BME280;3317;43.994;22.878;2023-01-26T05:44:21;101827.41;;;0.96;84.01
6567;BME280;3317;43.994;22.878;2023-01-26T05:46:49;101813.31;;;0.93;83.67
6567;BME280;3317;43.994;22.878;2023-01-26T05:49:16;101832.78;;;0.95;83.85
6567;BME280;3317;43.994;22.878;2023-01-26T05:51:43;101821.19;;;0.96;83.94
6567;BME280;3317;43.994;22.878;2023-01-26T05:54:10;101831.06;;;0.94;83.40
6567;BME280;3317;43.994;22.878;2023-01-26T05:56:37;101832.06;;;0.91;83.13
6567;BME280;3317;43.994;22.878;2023-01-26T05:59:05;101832.97;;;0.90;82.71
6567;BME280;3317;43.994;22.878;2023-01-26T06:01:32;101810.63;;;0.93;82.36
6567;BME280;3317;43.994;22.878;2023-01-26T06:03:59;101807.31;;;0.88;82.53
6567;BME280;3317;43.994;22.878;2023-01-26T06:06:26;101815.31;;;0.88;82.51
6567;BME280;3317;43.994;22.878;2023-01-26T06:08:53;101816.13;;;0.90;82.14
6567;BME280;3317;43.994;22.878;2023-01-26T06:11:20;101808.84;;;0.93;81.79
6567;BME280;3317;43.994;22.878;2023-01-26T06:13:47;101806.28;;;0.90;81.74
6567;BME280;3317;43.994;22.878;2023-01-26T06:16:15;101795.63;;;0.90;82.03
6567;BME280;3317;43.994;22.878;2023-01-26T06:18:46;101792.16;;;0.88;82.20
6567;BME280;3317;43.994;22.878;2023-01-26T06:21:14;101794.81;;;0.88;82.45
6567;BME280;3317;43.994;22.878;2023-01-26T06:23:40;101795.75;;;0.87;82.58
6567;BME280;3317;43.994;22.878;2023-01-26T06:26:08;101803.94;;;0.82;82.75
6567;BME280;3317;43.994;22.878;2023-01-26T06:28:34;101797.91;;;0.79;83.67
6567;BME280;3317;43.994;22.878;2023-01-26T06:31:02;101812.28;;;0.75;83.80
6567;BME280;3317;43.994;22.878;2023-01-26T06:33:32;101797.28;;;0.72;84.08
6567;BME280;3317;43.994;22.878;2023-01-26T06:36:00;101792.19;;;0.66;84.84
6567;BME280;3317;43.994;22.878;2023-01-26T06:38:28;101795.91;;;0.62;85.31
6567;BME280;3317;43.994;22.878;2023-01-26T06:40:58;101799.13;;;0.70;85.10
6567;BME280;3317;43.994;22.878;2023-01-26T06:43:25;101800.84;;;0.71;84.95
6567;BME280;3317;43.994;22.878;2023-01-26T06:45:54;101795.59;;;0.69;84.90
6567;BME280;3317;43.994;22.878;2023-01-26T06:48:21;101804.53;;;0.68;84.90
6567;BME280;3317;43.994;22.878;2023-01-26T06:50:49;101797.84;;;0.58;85.41
6567;BME280;3317;43.994;22.878;2023-01-26T06:53:29;101789.25;;;0.50;85.51
6567;BME280;3317;43.994;22.878;2023-01-26T06:55:56;101801.25;;;0.62;86.02
6567;BME280;3317;43.994;22.878;2023-01-26T06:58:23;101800.13;;;0.67;85.88
6567;BME280;3317;43.994;22.878;2023-01-26T07:00:50;101795.28;;;0.77;85.55
6567;BME280;3317;43.994;22.878;2023-01-26T07:03:17;101813.22;;;0.74;86.09
6567;BME280;3317;43.994;22.878;2023-01-26T07:05:44;101798.31;;;0.68;86.25
6567;BME280;3317;43.994;22.878;2023-01-26T07:08:13;101801.31;;;0.60;86.18
6567;BME280;3317;43.994;22.878;2023-01-26T07:10:40;101792.22;;;0.64;86.21
6567;BME280;3317;43.994;22.878;2023-01-26T07:13:07;101786.78;;;0.67;85.96
6567;BME280;3317;43.994;22.878;2023-01-26T07:15:34;101793.31;;;0.60;85.78
6567;BME280;3317;43.994;22.878;2023-01-26T07:18:01;101778.19;;;0.61;85.02
6567;BME280;3317;43.994;22.878;2023-01-26T07:20:27;101784.53;;;0.56;84.82
6567;BME280;3317;43.994;22.878;2023-01-26T07:22:54;101785.28;;;0.60;84.29
6567;BME280;3317;43.994;22.878;2023-01-26T07:25:23;101772.03;;;0.59;84.75
6567;BME280;3317;43.994;22.878;2023-01-26T07:27:54;101769.56;;;0.54;84.38
6567;BME280;3317;43.994;22.878;2023-01-26T07:30:21;101761.28;;;0.60;84.47
6567;BME280;3317;43.994;22.878;2023-01-26T07:32:48;101758.44;;;0.65;84.50
6567;BME280;3317;43.994;22.878;2023-01-26T07:35:16;101772.56;;;0.67;84.30
6567;BME280;3317;43.994;22.878;2023-01-26T07:37:43;101771.03;;;0.61;84.35
6567;BME280;3317;43.994;22.878;2023-01-26T07:40:10;101706.56;;;0.29;84.04
6567;BME280;3317;43.994;22.878;2023-01-26T07:42:39;101762.34;;;0.56;84.08
6567;BME280;3317;43.994;22.878;2023-01-26T07:45:06;101756.75;;;0.62;83.83
6567;BME280;3317;43.994;22.878;2023-01-26T07:47:33;101747.16;;;0.58;83.53
6567;BME280;3317;43.994;22.878;2023-01-26T07:50:02;101756.22;;;0.54;83.66
6567;BME280;3317;43.994;22.878;2023-01-26T07:52:29;101749.88;;;0.56;83.52
6567;BME280;3317;43.994;22.878;2023-01-26T07:54:55;101734.47;;;0.63;83.66
6567;BME280;3317;43.994;22.878;2023-01-26T07:57:22;101747.94;;;0.60;83.58
6567;BME280;3317;43.994;22.878;2023-01-26T07:59:51;101740.81;;;0.61;83.52
6567;BME280;3317;43.994;22.878;2023-01-26T08:02:18;101744.34;;;0.61;83.83
6567;BME280;3317;43.994;22.878;2023-01-26T08:04:44;101701.84;;;0.36;83.62
6567;BME280;3317;43.994;22.878;2023-01-26T08:07:11;101736.72;;;0.74;83.27
6567;BME280;3317;43.994;22.878;2023-01-26T08:09:38;101743.97;;;0.70;82.85
6567;BME280;3317;43.994;22.878;2023-01-26T08:12:05;101740.81;;;0.61;83.00
6567;BME280;3317;43.994;22.878;2023-01-26T08:14:33;101726.59;;;0.60;83.00
6567;BME280;3317;43.994;22.878;2023-01-26T08:17:01;101744.91;;;0.69;83.76
6567;BME280;3317;43.994;22.878;2023-01-26T08:19:29;101756.50;;;0.68;84.20
6567;BME280;3317;43.994;22.878;2023-01-26T08:21:56;101746.63;;;0.70;83.22
6567;BME280;3317;43.994;22.878;2023-01-26T08:24:23;101742.28;;;0.68;83.16
6567;BME280;3317;43.994;22.878;2023-01-26T08:26:51;101748.03;;;0.59;83.23
6567;BME280;3317;43.994;22.878;2023-01-26T08:29:18;101738.03;;;0.64;83.63
6567;BME280;3317;43.994;22.878;2023-01-26T08:31:45;101745.03;;;0.66;83.55
6567;BME280;3317;43.994;22.878;2023-01-26T08:34:13;101732.41;;;0.70;83.76
6567;BME280;3317;43.994;22.878;2023-01-26T08:36:40;101732.63;;;0.65;84.15
6567;BME280;3317;43.994;22.878;2023-01-26T08:39:07;101744.09;;;0.67;84.18
6567;BME280;3317;43.994;22.878;2023-01-26T08:41:34;101738.88;;;0.64;84.27
6567;BME280;3317;43.994;22.878;2023-01-26T08:44:01;101737.13;;;0.63;84.48
6567;BME280;3317;43.994;22.878;2023-01-26T08:46:28;101736.28;;;0.63;84.93
6567;BME280;3317;43.994;22.878;2023-01-26T08:48:55;101733.53;;;0.64;85.07
6567;BME280;3317;43.994;22.878;2023-01-26T08:51:23;101737.03;;;0.66;85.16
6567;BME280;3317;43.994;22.878;2023-01-26T08:53:50;101727.47;;;0.61;84.90
6567;BME280;3317;43.994;22.878;2023-01-26T08:56:19;101739.19;;;0.56;85.14
6567;BME280;3317;43.994;22.878;2023-01-26T08:58:46;101728.28;;;0.63;85.07
6567;BME280;3317;43.994;22.878;2023-01-26T09:01:14;101736.34;;;0.61;85.26
6567;BME280;3317;43.994;22.878;2023-01-26T09:03:42;101733.47;;;0.66;85.62
6567;BME280;3317;43.994;22.878;2023-01-26T09:06:10;101720.59;;;0.76;85.32
6567;BME280;3317;43.994;22.878;2023-01-26T09:08:39;101706.22;;;0.80;85.41
6567;BME280;3317;43.994;22.878;2023-01-26T09:11:07;101713.94;;;0.86;85.33
6567;BME280;3317;43.994;22.878;2023-01-26T09:13:34;101712.75;;;0.73;85.81
6567;BME280;3317;43.994;22.878;2023-01-26T09:16:03;101713.47;;;0.76;86.11
6567;BME280;3317;43.994;22.878;2023-01-26T09:18:31;101696.34;;;0.82;85.79
6567;BME280;3317;43.994;22.878;2023-01-26T09:21:01;101703.59;;;0.78;86.01
6567;BME280;3317;43.994;22.878;2023-01-26T09:23:30;101683.13;;;0.79;86.09
6567;BME280;3317;43.994;22.878;2023-01-26T09:25:58;101682.19;;;0.80;86.35
6567;BME280;3317;43.994;22.878;2023-01-26T09:28:28;101689.19;;;0.82;86.71
6567;BME280;3317;43.994;22.878;2023-01-26T09:30:55;101677.50;;;0.85;86.58
6567;BME280;3317;43.994;22.878;2023-01-26T09:33:22;101676.66;;;0.84;86.77
6567;BME280;3317;43.994;22.878;2023-01-26T09:35:49;101668.16;;;0.75;86.53
6567;BME280;3317;43.994;22.878;2023-01-26T09:38:16;101678.06;;;0.73;86.46
6567;BME280;3317;43.994;22.878;2023-01-26T09:40:50;101670.72;;;0.78;86.71
6567;BME280;3317;43.994;22.878;2023-01-26T09:43:27;101676.88;;;0.80;86.42
6567;BME280;3317;43.994;22.878;2023-01-26T09:46:03;101666.19;;;0.80;86.51
6567;BME280;3317;43.994;22.878;2023-01-26T09:48:41;101660.06;;;0.78;87.33
6567;BME280;3317;43.994;22.878;2023-01-26T09:51:12;101647.91;;;0.70;87.34
6567;BME280;3317;43.994;22.878;2023-01-26T09:53:43;101653.88;;;0.76;87.51
6567;BME280;3317;43.994;22.878;2023-01-26T09:56:16;101643.38;;;0.73;87.93
6567;BME280;3317;43.994;22.878;2023-01-26T09:58:48;101647.72;;;0.75;87.79
6567;BME280;3317;43.994;22.878;2023-01-26T10:01:20;101647.16;;;0.67;88.29
6567;BME280;3317;43.994;22.878;2023-01-26T10:03:56;101640.53;;;0.76;88.08
6567;BME280;3317;43.994;22.878;2023-01-26T10:06:26;101619.19;;;0.76;88.56
6567;BME280;3317;43.994;22.878;2023-01-26T10:08:58;101625.81;;;0.67;88.62
6567;BME280;3317;43.994;22.878;2023-01-26T10:11:28;101616.97;;;0.66;88.77
6567;BME280;3317;43.994;22.878;2023-01-26T10:14:01;101618.50;;;0.72;89.07
6567;BME280;3317;43.994;22.878;2023-01-26T10:16:32;101625.75;;;0.68;88.50
6567;BME280;3317;43.994;22.878;2023-01-26T10:19:02;101622.00;;;0.73;88.34
6567;BME280;3317;43.994;22.878;2023-01-26T10:21:35;101609.03;;;0.65;88.80
6567;BME280;3317;43.994;22.878;2023-01-26T10:24:04;101616.41;;;0.79;89.26
6567;BME280;3317;43.994;22.878;2023-01-26T10:26:32;101591.16;;;0.86;89.06
6567;BME280;3317;43.994;22.878;2023-01-26T10:29:01;101596.06;;;0.76;89.42
6567;BME280;3317;43.994;22.878;2023-01-26T10:31:30;101588.72;;;0.81;89.29
6567;BME280;3317;43.994;22.878;2023-01-26T10:33:59;101577.59;;;0.72;88.93
6567;BME280;3317;43.994;22.878;2023-01-26T10:36:30;101575.56;;;0.77;89.20
6567;BME280;3317;43.994;22.878;2023-01-26T10:39:04;101581.78;;;0.77;89.12
6567;BME280;3317;43.994;22.878;2023-01-26T10:41:31;101588.22;;;0.73;89.46
6567;BME280;3317;43.994;22.878;2023-01-26T10:44:02;101563.38;;;0.71;89.48
6567;BME280;3317;43.994;22.878;2023-01-26T10:46:33;101538.50;;;0.70;90.15
6567;BME280;3317;43.994;22.878;2023-01-26T10:49:09;101553.16;;;0.81;89.78
6567;BME280;3317;43.994;22.878;2023-01-26T10:51:41;101546.88;;;0.82;90.21
6567;BME280;3317;43.994;22.878;2023-01-26T10:54:18;101558.22;;;0.87;90.25
6567;BME280;3317;43.994;22.878;2023-01-26T10:56:46;101552.88;;;0.87;90.43
6567;BME280;3317;43.994;22.878;2023-01-26T10:59:24;101546.59;;;0.88;90.65
6567;BME280;3317;43.994;22.878;2023-01-26T11:01:53;101528.25;;;0.80;90.84
6567;BME280;3317;43.994;22.878;2023-01-26T11:04:25;101532.75;;;0.80;91.17
6567;BME280;3317;43.994;22.878;2023-01-26T11:06:52;101529.16;;;0.81;91.07
6567;BME280;3317;43.994;22.878;2023-01-26T11:09:24;101521.34;;;0.76;91.27
6567;BME280;3317;43.994;22.878;2023-01-26T11:11:56;101510.47;;;0.81;91.47
6567;BME280;3317;43.994;22.878;2023-01-26T11:14:26;101509.38;;;0.85;91.67
6567;BME280;3317;43.994;22.878;2023-01-26T11:16:58;101507.50;;;0.87;91.59
6567;BME280;3317;43.994;22.878;2023-01-26T11:19:46;101507.06;;;0.96;91.59
6567;BME280;3317;43.994;22.878;2023-01-26T11:22:26;101496.66;;;0.90;91.66
6567;BME280;3317;43.994;22.878;2023-01-26T11:25:01;101486.09;;;0.89;91.38
6567;BME280;3317;43.994;22.878;2023-01-26T11:27:45;101493.66;;;0.79;91.92
6567;BME280;3317;43.994;22.878;2023-01-26T11:30:36;101489.75;;;0.86;91.91
6567;BME280;3317;43.994;22.878;2023-01-26T11:33:15;101486.94;;;0.89;91.86
6567;BME280;3317;43.994;22.878;2023-01-26T11:35:50;101475.19;;;0.93;91.42
6567;BME280;3317;43.994;22.878;2023-01-26T11:38:37;101463.78;;;0.90;91.27
6567;BME280;3317;43.994;22.878;2023-01-26T11:41:22;101475.19;;;0.93;91.13
6567;BME280;3317;43.994;22.878;2023-01-26T11:44:18;101469.84;;;0.93;91.81
6567;BME280;3317;43.994;22.878;2023-01-26T11:47:02;101463.06;;;0.86;91.66
6567;BME280;3317;43.994;22.878;2023-01-26T11:49:50;101466.47;;;0.90;90.96
6567;BME280;3317;43.994;22.878;2023-01-26T11:52:29;101460.41;;;0.86;90.90
6567;BME280;3317;43.994;22.878;2023-01-26T11:55:06;101455.72;;;0.91;91.06
6567;BME280;3317;43.994;22.878;2023-01-26T11:57:48;101453.06;;;0.91;91.10
6567;BME280;3317;43.994;22.878;2023-01-26T12:00:21;101466.16;;;0.96;91.67
6567;BME280;3317;43.994;22.878;2023-01-26T12:02:55;101439.56;;;0.94;91.26
6567;BME280;3317;43.994;22.878;2023-01-26T12:05:27;101440.56;;;0.92;90.96
6567;BME280;3317;43.994;22.878;2023-01-26T12:08:01;101441.28;;;0.95;90.26
6567;BME280;3317;43.994;22.878;2023-01-26T12:10:34;101439.56;;;0.94;90.72
6567;BME280;3317;43.994;22.878;2023-01-26T12:13:08;101440.50;;;0.93;91.14
6567;BME280;3317;43.994;22.878;2023-01-26T12:15:38;101436.72;;;0.97;91.30
6567;BME280;3317;43.994;22.878;2023-01-26T12:18:13;101442.13;;;0.96;90.73
6567;BME280;3317;43.994;22.878;2023-01-26T12:20:43;101424.59;;;0.90;90.47
6567;BME280;3317;43.994;22.878;2023-01-26T12:23:17;101415.44;;;0.96;90.25
6567;BME280;3317;43.994;22.878;2023-01-26T12:25:51;101407.22;;;1.01;90.33
6567;BME280;3317;43.994;22.878;2023-01-26T12:28:20;101401.38;;;1.11;90.33
6567;BME280;3317;43.994;22.878;2023-01-26T12:30:56;101387.13;;;1.11;90.42
6567;BME280;3317;43.994;22.878;2023-01-26T12:33:27;101383.28;;;1.17;90.18
6567;BME280;3317;43.994;22.878;2023-01-26T12:36:14;101380.78;;;1.14;89.81
6567;BME280;3317;43.994;22.878;2023-01-26T12:39:00;101373.16;;;1.06;89.59
6567;BME280;3317;43.994;22.878;2023-01-26T12:41:36;101379.91;;;1.13;89.21
6567;BME280;3317;43.994;22.878;2023-01-26T12:44:20;101377.88;;;1.18;89.11
6567;BME280;3317;43.994;22.878;2023-01-26T12:46:53;101304.44;;;0.92;88.88
6567;BME280;3317;43.994;22.878;2023-01-26T12:49:27;101360.44;;;1.29;88.79
6567;BME280;3317;43.994;22.878;2023-01-26T12:51:58;101352.19;;;1.33;88.49
6567;BME280;3317;43.994;22.878;2023-01-26T12:54:32;101380.88;;;1.30;88.27
6567;BME280;3317;43.994;22.878;2023-01-26T12:57:05;101366.94;;;1.23;87.98
6567;BME280;3317;43.994;22.878;2023-01-26T12:59:37;101367.03;;;1.21;88.04
6567;BME280;3317;43.994;22.878;2023-01-26T13:02:21;101358.25;;;1.19;88.27
6567;BME280;3317;43.994;22.878;2023-01-26T13:04:51;101363.28;;;1.25;88.13
6567;BME280;3317;43.994;22.878;2023-01-26T13:07:33;101352.28;;;1.32;88.39
6567;BME280;3317;43.994;22.878;2023-01-26T13:10:21;101333.19;;;1.39;88.09
6567;BME280;3317;43.994;22.878;2023-01-26T13:12:50;101338.00;;;1.33;88.40
6567;BME280;3317;43.994;22.878;2023-01-26T13:15:19;101329.03;;;1.34;88.18
6567;BME280;3317;43.994;22.878;2023-01-26T13:17:52;101335.75;;;1.41;88.15
6567;BME280;3317;43.994;22.878;2023-01-26T13:20:40;101334.69;;;1.45;88.59
6567;BME280;3317;43.994;22.878;2023-01-26T13:23:36;101349.94;;;1.43;88.72
6567;BME280;3317;43.994;22.878;2023-01-26T13:26:18;101343.38;;;1.49;88.79
6567;BME280;3317;43.994;22.878;2023-01-26T13:28:47;101350.41;;;1.34;89.40
6567;BME280;3317;43.994;22.878;2023-01-26T13:31:31;101337.88;;;1.34;89.13
6567;BME280;3317;43.994;22.878;2023-01-26T13:34:00;101350.22;;;1.37;89.17